Time;durP1;ratioP1;P1;durP2;ratioP2;P2;SDS_P1;SDS_P2;PMS_P1;PMS_P2;Temp;Humidity;BMP_temperature;BMP_pressure;BME280_temperature;BME280_humidity;BME280_pressure;Samples;Min_cycle;Max_cycle;Signal;HPM_P1;HPM_P2
2022/11/03 00:01:05;;;;;;;;;;;;;;;;;;4975188;29;19914;-80
2022/11/03 00:03:30;;;;;;;;;;;;;;;;;;4960325;29;19942;-80
2022/11/03 00:06:08;;;;;;;;;;;;;;;;;;4930968;29;19914;-82
2022/11/03 00:08:34;;;;;;;;;;;;;;;;;;4978746;29;19955;-83
2022/11/03 00:10:59;;;;;;;;;;;;;;;;;;4977334;28;19915;-84
2022/11/03 00:13:24;;;;;;;;;;;;;;;;;;4974847;29;19915;-83
2022/11/03 00:15:50;;;;;;;;;;;;;;;;;;4958217;29;19957;-83
2022/11/03 00:18:15;;;;;;;;;;;;;;;;;;4975023;28;20082;-84
2022/11/03 00:20:41;;;;;;;;;;;;;;;;;;4957225;29;20339;-88
2022/11/03 00:23:06;;;;;;;;;;;;;;;;;;4957816;29;19926;-83
2022/11/03 00:25:31;;;;;;;;;;;;;;;;;;4972388;28;19995;-82
2022/11/03 00:27:57;;;;;;;;;;;;;;;;;;4971707;28;19914;-81
2022/11/03 00:30:22;;;;;;;;;;;;;;;;;;4955805;29;19975;-83
2022/11/03 00:32:48;;;;;;;;;;;;;;;;;;4972040;28;19922;-83
2022/11/03 00:35:13;;;;;;;;;;;;;;;;;;4958712;29;20013;-83
2022/11/03 00:37:39;;;;;;;;;;;;;;;;;;4975316;28;19966;-86
2022/11/03 00:40:04;;;;;;;;;;;;;;;;;;4957760;29;19942;-83
2022/11/03 00:42:29;;;;;;;;;;;;;;;;;;4973252;29;19964;-82
2022/11/03 00:44:55;;;;;;;;;;;;;;;;;;4971852;28;19953;-83
2022/11/03 00:47:20;;;;;;;;;;;;;;;;;;4957817;29;19978;-83
2022/11/03 00:49:46;;;;;;;;;;;;;;;;;;4974433;29;19915;-83
2022/11/03 00:52:11;;;;;;;;;;;;;;;;;;4972602;28;19921;-82
2022/11/03 00:54:37;;;;;;;;;;;;;;;;;;4973472;28;19915;-83
2022/11/03 00:57:02;;;;;;;;;;;;;;;;;;4978405;28;19918;-82
2022/11/03 00:59:28;;;;;;;;;;;;;;;;;;4943978;29;19918;-89
2022/11/03 01:01:53;;;;;;;;;;;;;;;;;;4953357;29;20015;-89
2022/11/03 01:07:03;;;;;;;;;;;;;;;;;;4960606;29;19915;-84
2022/11/03 01:09:29;;;;;;;;;;;;;;;;;;4961308;29;19958;-84
2022/11/03 01:11:57;;;;;;;;;;;;;;;;;;4945354;29;19930;-84
2022/11/03 01:14:23;;;;;;;;;;;;;;;;;;4978316;28;19894;-84
2022/11/03 01:16:48;;;;;;;;;;;;;;;;;;4946642;28;19909;-85
2022/11/03 01:19:17;;;;;;;;;;;;;;;;;;4972616;28;19939;-86
2022/11/03 01:21:42;;;;;;;;;;;;;;;;;;4951869;29;19922;-86
2022/11/03 01:24:07;;;;;;;;;;;;;;;;;;4960117;29;19930;-84
2022/11/03 01:26:33;;;;;;;;;;;;;;;;;;4975245;28;19952;-82
2022/11/03 01:28:58;;;;;;;;;;;;;;;;;;4973112;29;19910;-82
2022/11/03 01:31:24;;;;;;;;;;;;;;;;;;4973381;29;20374;-83
2022/11/03 01:33:49;;;;;;;;;;;;;;;;;;4959438;29;20244;-82
2022/11/03 01:36:15;;;;;;;;;;;;;;;;;;4975545;28;19918;-84
2022/11/03 01:38:40;;;;;;;;;;;;;;;;;;4973373;28;19925;-86
2022/11/03 01:41:06;;;;;;;;;;;;;;;;;;4956835;29;19898;-86
2022/11/03 01:43:31;;;;;;;;;;;;;;;;;;4938153;29;20329;-86
2022/11/03 01:45:56;;;;;;;;;;;;;;;;;;4954188;29;19914;-86
2022/11/03 01:48:22;;;;;;;;;;;;;;;;;;4949651;29;20001;-89
2022/11/03 01:50:47;;;;;;;;;;;;;;;;;;4962182;29;19922;-86
2022/11/03 01:53:13;;;;;;;;;;;;;;;;;;4954986;29;20351;-86
2022/11/03 01:55:38;;;;;;;;;;;;;;;;;;4958161;28;19919;-85
2022/11/03 01:58:04;;;;;;;;;;;;;;;;;;4947800;29;20374;-84
2022/11/03 02:00:29;;;;;;;;;;;;;;;;;;4958766;29;19899;-82
2022/11/03 02:02:55;;;;;;;;;;;;;;;;;;4977972;28;19907;-83
2022/11/03 02:05:20;;;;;;;;;;;;;;;;;;4929325;29;19926;-83
2022/11/03 02:07:46;;;;;;;;;;;;;;;;;;4976944;29;19982;-81
2022/11/03 02:10:11;;;;;;;;;;;;;;;;;;4943830;29;20317;-86
2022/11/03 02:12:36;;;;;;;;;;;;;;;;;;4956096;29;19910;-88
2022/11/03 02:15:02;;;;;;;;;;;;;;;;;;4959934;28;19926;-86
2022/11/03 02:17:27;;;;;;;;;;;;;;;;;;4977052;29;19906;-88
2022/11/03 02:19:53;;;;;;;;;;;;;;;;;;4961705;29;19911;-85
2022/11/03 02:22:18;;;;;;;;;;;;;;;;;;4946731;29;19927;-82
2022/11/03 02:24:44;;;;;;;;;;;;;;;;;;4946646;28;19919;-82
2022/11/03 02:27:09;;;;;;;;;;;;;;;;;;4945206;29;19914;-83
2022/11/03 02:29:35;;;;;;;;;;;;;;;;;;4943615;28;19913;-82
2022/11/03 02:32:00;;;;;;;;;;;;;;;;;;4958748;29;19923;-84
2022/11/03 02:34:29;;;;;;;;;;;;;;;;;;4957340;29;19922;-83
2022/11/03 02:36:55;;;;;;;;;;;;;;;;;;4975671;28;19965;-83
2022/11/03 02:39:20;;;;;;;;;;;;;;;;;;4969768;28;19914;-82
2022/11/03 02:41:45;;;;;;;;;;;;;;;;;;4936216;29;19929;-80
2022/11/03 02:44:11;;;;;;;;;;;;;;;;;;4970664;28;19915;-81
2022/11/03 02:46:36;;;;;;;;;;;;;;;;;;4974883;28;19922;-81
2022/11/03 02:49:02;;;;;;;;;;;;;;;;;;4959676;29;19915;-83
2022/11/03 02:51:27;;;;;;;;;;;;;;;;;;4981623;29;19942;-83
2022/11/03 02:53:53;;;;;;;;;;;;;;;;;;4933391;29;19914;-83
2022/11/03 02:56:18;;;;;;;;;;;;;;;;;;4948953;29;19903;-81
2022/11/03 02:58:44;;;;;;;;;;;;;;;;;;4965435;28;19969;-83
2022/11/03 03:01:13;;;;;;;;;;;;;;;;;;4949053;29;19915;-81
2022/11/03 03:03:39;;;;;;;;;;;;;;;;;;4948591;29;19919;-83
2022/11/03 03:06:04;;;;;;;;;;;;;;;;;;4962769;29;19983;-81
2022/11/03 03:08:29;;;;;;;;;;;;;;;;;;4930786;29;19914;-83
2022/11/03 03:10:55;;;;;;;;;;;;;;;;;;4963290;29;19929;-87
2022/11/03 03:13:20;;;;;;;;;;;;;;;;;;4976808;29;19929;-81
2022/11/03 03:15:46;;;;;;;;;;;;;;;;;;4961959;29;19938;-82
2022/11/03 03:18:11;;;;;;;;;;;;;;;;;;4962077;29;19919;-81
2022/11/03 03:20:36;;;;;;;;;;;;;;;;;;4945455;29;19941;-86
2022/11/03 03:23:02;;;;;;;;;;;;;;;;;;4943922;29;20005;-87
2022/11/03 03:25:27;;;;;;;;;;;;;;;;;;4960191;29;20297;-89
2022/11/03 03:27:53;;;;;;;;;;;;;;;;;;4939941;29;20223;-86
2022/11/03 03:30:18;;;;;;;;;;;;;;;;;;4957584;29;19914;-86
2022/11/03 03:32:43;;;;;;;;;;;;;;;;;;4954708;29;19926;-86
2022/11/03 03:35:09;;;;;;;;;;;;;;;;;;4968158;28;19915;-87
2022/11/03 03:37:35;;;;;;;;;;;;;;;;;;4939865;29;19922;-86
2022/11/03 03:40:00;;;;;;;;;;;;;;;;;;4977172;29;19918;-82
2022/11/03 03:42:26;;;;;;;;;;;;;;;;;;4946983;29;19906;-82
2022/11/03 03:44:51;;;;;;;;;;;;;;;;;;4946303;28;19973;-82
2022/11/03 03:47:17;;;;;;;;;;;;;;;;;;4960482;29;19938;-80
2022/11/03 03:49:42;;;;;;;;;;;;;;;;;;4978042;29;20378;-82
2022/11/03 03:52:08;;;;;;;;;;;;;;;;;;4945743;29;19914;-81
2022/11/03 03:54:33;;;;;;;;;;;;;;;;;;4961472;29;19921;-82
2022/11/03 03:56:59;;;;;;;;;;;;;;;;;;4958564;29;19914;-82
2022/11/03 03:59:24;;;;;;;;;;;;;;;;;;4944399;29;20398;-84
2022/11/03 04:01:50;;;;;;;;;;;;;;;;;;4932131;29;19906;-83
2022/11/03 04:04:15;;;;;;;;;;;;;;;;;;4944119;29;20306;-84
2022/11/03 04:06:40;;;;;;;;;;;;;;;;;;4958763;29;19950;-83
2022/11/03 04:09:06;;;;;;;;;;;;;;;;;;4929460;29;19957;-84
2022/11/03 04:22:29;;;;;;;;;;;;;;;;;;4960627;29;19923;-83
2022/11/03 04:24:54;;;;;;;;;;;;;;;;;;4961293;28;19910;-81
2022/11/03 04:27:20;;;;;;;;;;;;;;;;;;4944049;29;19915;-83
2022/11/03 04:29:45;;;;;;;;;;;;;;;;;;4941925;29;20045;-87
2022/11/03 04:32:11;;;;;;;;;;;;;;;;;;4974071;28;19925;-85
2022/11/03 04:34:36;;;;;;;;;;;;;;;;;;4973871;28;19911;-87
2022/11/03 04:37:02;;;;;;;;;;;;;;;;;;4940732;29;19918;-85
2022/11/03 04:39:27;;;;;;;;;;;;;;;;;;4951281;29;19926;-89
2022/11/03 04:41:52;;;;;;;;;;;;;;;;;;4942317;29;19933;-89
2022/11/03 04:44:18;;;;;;;;;;;;;;;;;;4942292;29;19915;-89
2022/11/03 04:46:43;;;;;;;;;;;;;;;;;;4935615;29;19965;-87
2022/11/03 04:49:08;;;;;;;;;;;;;;;;;;4939763;29;20002;-88
2022/11/03 04:51:34;;;;;;;;;;;;;;;;;;4922761;29;20382;-85
2022/11/03 04:53:59;;;;;;;;;;;;;;;;;;4936583;29;19958;-88
2022/11/03 04:56:25;;;;;;;;;;;;;;;;;;4949093;29;20374;-89
2022/11/03 04:58:50;;;;;;;;;;;;;;;;;;4943932;29;19992;-87
2022/11/03 05:01:15;;;;;;;;;;;;;;;;;;4947179;29;19915;-86
2022/11/03 05:03:41;;;;;;;;;;;;;;;;;;4964640;29;19918;-87
2022/11/03 05:06:06;;;;;;;;;;;;;;;;;;4966771;28;19914;-88
2022/11/03 05:08:32;;;;;;;;;;;;;;;;;;4936247;29;19938;-87
2022/11/03 05:10:57;;;;;;;;;;;;;;;;;;4918266;29;19914;-86
2022/11/03 05:13:22;;;;;;;;;;;;;;;;;;4934560;29;19894;-90
2022/11/03 05:15:48;;;;;;;;;;;;;;;;;;4923807;29;19906;-89
2022/11/03 05:18:13;;;;;;;;;;;;;;;;;;4922525;29;19915;-82
2022/11/03 05:20:38;;;;;;;;;;;;;;;;;;4955591;29;19938;-84
2022/11/03 05:23:04;;;;;;;;;;;;;;;;;;4956711;29;19922;-82
2022/11/03 05:25:29;;;;;;;;;;;;;;;;;;4957912;29;19941;-81
2022/11/03 05:27:55;;;;;;;;;;;;;;;;;;4973930;28;19915;-81
2022/11/03 05:30:21;;;;;;;;;;;;;;;;;;4959213;29;19918;-83
2022/11/03 05:32:46;;;;;;;;;;;;;;;;;;4976954;28;19950;-82
2022/11/03 05:35:12;;;;;;;;;;;;;;;;;;4974731;28;20346;-82
2022/11/03 05:37:40;;;;;;;;;;;;;;;;;;4972778;29;19942;-82
2022/11/03 05:40:05;;;;;;;;;;;;;;;;;;4971947;28;20370;-82
2022/11/03 05:42:31;;;;;;;;;;;;;;;;;;4956312;29;19926;-82
2022/11/03 05:45:03;;;;;;;;;;;;;;;;;;4956688;28;20413;-81
2022/11/03 05:47:31;;;;;;;;;;;;;;;;;;4972047;28;19914;-82
2022/11/03 05:49:56;;;;;;;;;;;;;;;;;;4955177;29;19918;-82
2022/11/03 05:52:24;;;;;;;;;;;;;;;;;;4960223;29;19919;-81
2022/11/03 05:54:53;;;;;;;;;;;;;;;;;;4959569;28;19918;-84
2022/11/03 05:57:30;;;;;;;;;;;;;;;;;;4975339;29;19915;-83
2022/11/03 05:59:56;;;;;;;;;;;;;;;;;;4958645;29;19946;-82
2022/11/03 06:02:21;;;;;;;;;;;;;;;;;;4957624;29;19994;-83
2022/11/03 06:04:51;;;;;;;;;;;;;;;;;;4957317;28;19915;-80
2022/11/03 06:07:17;;;;;;;;;;;;;;;;;;4957924;29;19914;-82
2022/11/03 06:09:45;;;;;;;;;;;;;;;;;;4958420;29;19918;-81
2022/11/03 06:12:16;;;;;;;;;;;;;;;;;;4949460;29;19988;-84
2022/11/03 06:14:42;;;;;;;;;;;;;;;;;;4966343;28;19922;-84
2022/11/03 06:17:08;;;;;;;;;;;;;;;;;;4966628;29;19919;-85
2022/11/03 06:19:33;;;;;;;;;;;;;;;;;;4982479;28;19965;-85
2022/11/03 06:21:59;;;;;;;;;;;;;;;;;;4964996;29;19927;-86
2022/11/03 06:24:27;;;;;;;;;;;;;;;;;;4966344;29;19918;-85
2022/11/03 06:26:53;;;;;;;;;;;;;;;;;;5188629;23;19925;-84
2022/11/03 06:29:18;;;;;;;;;;;;;;;;;;5019457;28;19909;-83
2022/11/03 06:31:46;;;;;;;;;;;;;;;;;;5000957;28;19921;-84
2022/11/03 06:34:12;;;;;;;;;;;;;;;;;;5001686;28;19916;-82
2022/11/03 06:36:37;;;;;;;;;;;;;;;;;;5014086;28;20031;-82
2022/11/03 06:39:02;;;;;;;;;;;;;;;;;;5012116;28;19988;-82
2022/11/03 06:41:28;;;;;;;;;;;;;;;;;;5009192;28;19920;-83
2022/11/03 06:43:59;;;;;;;;;;;;;;;;;;5010757;28;19945;-82
2022/11/03 06:46:28;;;;;;;;;;;;;;;;;;5015104;28;19913;-81
2022/11/03 06:48:54;;;;;;;;;;;;;;;;;;5010670;28;19969;-82
2022/11/03 06:51:20;;;;;;;;;;;;;;;;;;5007437;28;19920;-79
2022/11/03 06:53:46;;;;;;;;;;;;;;;;;;5009763;28;19949;-82
2022/11/03 06:56:12;;;;;;;;;;;;;;;;;;4976350;28;19937;-82
2022/11/03 06:58:43;;;;;;;;;;;;;;;;;;4994446;28;19920;-82
2022/11/03 07:01:08;;;;;;;;;;;;;;;;;;4996575;28;19914;-82
2022/11/03 07:04:00;;;;;;;;;;;;;;;;;;4999524;28;19945;-84
2022/11/03 07:06:40;;;;;;;;;;;;;;;;;;5014437;28;19902;-82
2022/11/03 07:09:05;;;;;;;;;;;;;;;;;;5018678;28;19949;-80
2022/11/03 07:14:06;;;;;;;;;;;;;;;;;;5056860;28;19909;-82
2022/11/03 07:30:02;;;;;;;;;;;;;;;;;;5183290;23;19927;-83
2022/11/03 07:32:34;;;;;;;;;;;;;;;;;;4931566;29;19954;-84
2022/11/03 07:35:07;;;;;;;;;;;;;;;;;;4931633;28;19941;-83
2022/11/03 07:37:33;;;;;;;;;;;;;;;;;;4959026;29;19965;-82
2022/11/03 07:40:01;;;;;;;;;;;;;;;;;;4957147;29;19987;-84
2022/11/03 07:42:29;;;;;;;;;;;;;;;;;;4942319;29;19981;-83
2022/11/03 07:44:59;;;;;;;;;;;;;;;;;;4944736;28;19914;-84
2022/11/03 07:47:30;;;;;;;;;;;;;;;;;;4960022;29;19914;-83
2022/11/03 07:49:56;;;;;;;;;;;;;;;;;;4979136;28;19950;-81
2022/11/03 07:55:03;;;;;;;;;;;;;;;;;;5877745;23;20885;-87
2022/11/03 07:57:29;;;;;;;;;;;;;;;;;;5498603;23;19911;-87
2022/11/03 07:59:57;;;;;;;;;;;;;;;;;;4967047;28;20021;-83
2022/11/03 08:02:29;;;;;;;;;;;;;;;;;;4982690;28;19918;-86
2022/11/03 08:04:57;;;;;;;;;;;;;;;;;;4982685;28;19902;-87
2022/11/03 08:07:26;;;;;;;;;;;;;;;;;;4952080;28;19972;-90
2022/11/03 08:12:37;;;;;;;;;;;;;;;;;;5193788;23;19953;-86
2022/11/03 08:15:03;;;;;;;;;;;;;;;;;;4986388;28;19914;-88
2022/11/03 08:17:29;;;;;;;;;;;;;;;;;;4985328;28;19925;-85
2022/11/03 08:19:54;;;;;;;;;;;;;;;;;;4995902;28;19913;-89
2022/11/03 08:22:22;;;;;;;;;;;;;;;;;;4995672;28;20345;-91
2022/11/03 08:24:50;;;;;;;;;;;;;;;;;;4967183;28;20400;-90
2022/11/03 08:27:16;;;;;;;;;;;;;;;;;;4960680;28;19914;-91
2022/11/03 08:29:41;;;;;;;;;;;;;;;;;;4966987;28;19937;-88
2022/11/03 08:32:07;;;;;;;;;;;;;;;;;;4976408;28;19914;-92
2022/11/03 08:34:33;;;;;;;;;;;;;;;;;;4960129;28;20029;-92
2022/11/03 08:36:58;;;;;;;;;;;;;;;;;;4972443;28;19930;-88
2022/11/03 08:39:23;;;;;;;;;;;;;;;;;;5005888;28;19918;-91
2022/11/03 08:41:49;;;;;;;;;;;;;;;;;;4996640;28;20432;-90
2022/11/03 08:44:14;;;;;;;;;;;;;;;;;;4994914;28;19914;-90
2022/11/03 08:46:40;;;;;;;;;;;;;;;;;;5016115;28;20288;-86
2022/11/03 08:49:08;;;;;;;;;;;;;;;;;;5006769;28;19939;-92
2022/11/03 08:51:34;;;;;;;;;;;;;;;;;;4974573;28;20004;-85
2022/11/03 08:53:59;;;;;;;;;;;;;;;;;;4976951;28;19957;-86
2022/11/03 08:56:24;;;;;;;;;;;;;;;;;;4957011;28;19914;-85
2022/11/03 08:58:50;;;;;;;;;;;;;;;;;;4973681;28;19915;-85
2022/11/03 09:01:15;;;;;;;;;;;;;;;;;;4973606;28;19937;-84
2022/11/03 09:03:41;;;;;;;;;;;;;;;;;;4978830;28;20401;-85
2022/11/03 09:06:06;;;;;;;;;;;;;;;;;;4993660;28;20119;-86
2022/11/03 09:08:31;;;;;;;;;;;;;;;;;;4981431;28;20329;-85
2022/11/03 09:10:57;;;;;;;;;;;;;;;;;;4991270;28;19917;-84
2022/11/03 09:13:22;;;;;;;;;;;;;;;;;;4977373;28;20397;-86
2022/11/03 09:15:47;;;;;;;;;;;;;;;;;;4986766;28;19914;-79
2022/11/03 09:18:13;;;;;;;;;;;;;;;;;;4982898;28;19924;-85
2022/11/03 09:20:39;;;;;;;;;;;;;;;;;;4983272;28;19918;-84
2022/11/03 09:23:07;;;;;;;;;;;;;;;;;;4989849;28;19922;-82
2022/11/03 09:25:32;;;;;;;;;;;;;;;;;;4988848;28;19977;-91
2022/11/03 09:27:58;;;;;;;;;;;;;;;;;;4965947;28;19982;-95
2022/11/03 09:30:23;;;;;;;;;;;;;;;;;;4965618;28;19913;-94
2022/11/03 09:32:49;;;;;;;;;;;;;;;;;;4964406;28;19906;-95
2022/11/03 09:35:15;;;;;;;;;;;;;;;;;;4964247;28;19910;-96
2022/11/03 09:37:44;;;;;;;;;;;;;;;;;;4961702;28;19921;-95
2022/11/03 09:40:20;;;;;;;;;;;;;;;;;;4972310;28;19909;-95
2022/11/03 09:42:51;;;;;;;;;;;;;;;;;;4978858;28;19922;-95
2022/11/03 09:45:27;;;;;;;;;;;;;;;;;;4980513;28;19918;-94
2022/11/03 09:47:56;;;;;;;;;;;;;;;;;;4985217;28;20068;-93
2022/11/03 09:50:24;;;;;;;;;;;;;;;;;;4988537;28;19929;-95
2022/11/03 09:53:01;;;;;;;;;;;;;;;;;;;;;
2022/11/03 09:56:18;;;;;;;;;;;;;;;;;;4983068;28;19957;-96
2022/11/03 09:59:10;;;;;;;;;;;;;;;;;;5006707;28;19914;-93
2022/11/03 10:01:42;;;;;;;;;;;;;;;;;;4985607;28;19913;-93
2022/11/03 10:04:13;;;;;;;;;;;;;;;;;;4988427;28;19916;-95
2022/11/03 10:06:39;;;;;;;;;;;;;;;;;;5003878;28;19922;-94
2022/11/03 10:09:14;;;;;;;;;;;;;;;;;;4988071;28;19917;-96
2022/11/03 10:11:46;;;;;;;;;;;;;;;;;;4989303;28;19910;-94
2022/11/03 10:14:29;;;;;;;;;;;;;;;;;;4985683;28;19970;-96
2022/11/03 10:16:58;;;;;;;;;;;;;;;;;;4968649;28;19925;-96
2022/11/03 10:19:42;;;;;;;;;;;;;;;;;;4987443;28;20469;-96
2022/11/03 10:22:08;;;;;;;;;;;;;;;;;;4968784;28;19924;-94
2022/11/03 10:24:34;;;;;;;;;;;;;;;;;;4968975;28;19906;-95
2022/11/03 10:27:03;;;;;;;;;;;;;;;;;;4968333;28;19933;-95
2022/11/03 10:29:33;;;;;;;;;;;;;;;;;;4977203;28;19918;-96
2022/11/03 10:32:00;;;;;;;;;;;;;;;;;;4985350;28;19966;-94
2022/11/03 10:34:28;;;;;;;;;;;;;;;;;;4986106;28;20001;-95
2022/11/03 10:36:58;;;;;;;;;;;;;;;;;;5002814;28;19906;-95
2022/11/03 10:39:30;;;;;;;;;;;;;;;;;;4987385;28;19914;-96
2022/11/03 10:42:06;;;;;;;;;;;;;;;;;;4989636;28;19914;-95
2022/11/03 10:44:38;;;;;;;;;;;;;;;;;;4984052;28;19978;-95
2022/11/03 10:47:12;;;;;;;;;;;;;;;;;;4968496;28;19906;-96
2022/11/03 10:49:38;;;;;;;;;;;;;;;;;;4967197;28;19978;-96
2022/11/03 10:52:04;;;;;;;;;;;;;;;;;;4967853;28;19937;-94
2022/11/03 10:54:31;;;;;;;;;;;;;;;;;;4966062;28;19918;-94
2022/11/03 10:57:05;;;;;;;;;;;;;;;;;;4964101;28;19937;-95
2022/11/03 10:59:41;;;;;;;;;;;;;;;;;;4969660;28;19930;-95
2022/11/03 11:02:24;;;;;;;;;;;;;;;;;;4980889;28;20002;-96
2022/11/03 11:08:18;;;;;;;;;;;;;;;;;;;;;
2022/11/03 11:10:44;;;;;;;;;;;;;;;;;;4976728;28;19926;-81
2022/11/03 11:13:11;;;;;;;;;;;;;;;;;;4976037;28;20314;-79
2022/11/03 11:15:37;;;;;;;;;;;;;;;;;;4974292;28;19910;-81
2022/11/03 11:18:02;;;;;;;;;;;;;;;;;;4975234;28;19988;-80
2022/11/03 11:20:27;;;;;;;;;;;;;;;;;;4974407;28;19914;-80
2022/11/03 11:22:53;;;;;;;;;;;;;;;;;;4991453;28;20021;-80
2022/11/03 11:25:18;;;;;;;;;;;;;;;;;;4978980;28;19969;-81
2022/11/03 11:27:44;;;;;;;;;;;;;;;;;;4988908;28;19914;-82
2022/11/03 11:30:09;;;;;;;;;;;;;;;;;;4981419;28;19913;-83
2022/11/03 11:32:34;;;;;;;;;;;;;;;;;;4981961;28;19918;-79
2022/11/03 11:35:00;;;;;;;;;;;;;;;;;;4988312;28;20325;-80
2022/11/03 11:37:26;;;;;;;;;;;;;;;;;;4978193;28;19957;-78
2022/11/03 11:39:53;;;;;;;;;;;;;;;;;;4989561;28;20456;-81
2022/11/03 11:42:19;;;;;;;;;;;;;;;;;;4983853;28;19965;-79
2022/11/03 11:44:45;;;;;;;;;;;;;;;;;;4964639;28;19926;-82
2022/11/03 11:47:10;;;;;;;;;;;;;;;;;;4989300;28;19914;-83
2022/11/03 11:49:42;;;;;;;;;;;;;;;;;;4985902;28;20325;-83
2022/11/03 11:52:08;;;;;;;;;;;;;;;;;;4993466;28;20005;-81
2022/11/03 11:54:33;;;;;;;;;;;;;;;;;;4974514;28;20016;-81
2022/11/03 11:56:58;;;;;;;;;;;;;;;;;;4974618;28;20305;-82
2022/11/03 11:59:24;;;;;;;;;;;;;;;;;;4974207;28;20055;-82
2022/11/03 12:01:50;;;;;;;;;;;;;;;;;;4976637;28;20008;-80
2022/11/03 12:04:16;;;;;;;;;;;;;;;;;;4976039;28;19914;-80
2022/11/03 12:06:41;;;;;;;;;;;;;;;;;;4976080;28;19937;-81
2022/11/03 12:09:09;;;;;;;;;;;;;;;;;;4981757;28;19918;-80
2022/11/03 12:11:35;;;;;;;;;;;;;;;;;;4976378;28;20401;-80
2022/11/03 12:14:00;;;;;;;;;;;;;;;;;;4976293;28;19914;-79
2022/11/03 12:16:26;;;;;;;;;;;;;;;;;;4975827;28;19937;-81
2022/11/03 12:18:52;;;;;;;;;;;;;;;;;;4978395;28;19928;-80
2022/11/03 12:21:22;;;;;;;;;;;;;;;;;;4984502;28;20022;-89
2022/11/03 12:23:47;;;;;;;;;;;;;;;;;;4960852;28;19925;-89
2022/11/03 12:26:16;;;;;;;;;;;;;;;;;;4976620;28;19914;-88
2022/11/03 12:28:43;;;;;;;;;;;;;;;;;;4967099;28;19985;-87
2022/11/03 12:31:09;;;;;;;;;;;;;;;;;;5008485;28;19921;-87
2022/11/03 12:33:36;;;;;;;;;;;;;;;;;;4983596;28;19914;-86
2022/11/03 12:36:02;;;;;;;;;;;;;;;;;;4958103;28;19922;-88
2022/11/03 12:38:27;;;;;;;;;;;;;;;;;;4975128;28;19920;-87
2022/11/03 12:40:56;;;;;;;;;;;;;;;;;;5012024;28;19917;-86
2022/11/03 12:43:23;;;;;;;;;;;;;;;;;;5010598;28;19945;-88
2022/11/03 12:45:54;;;;;;;;;;;;;;;;;;4980863;28;19979;-88
2022/11/03 12:48:25;;;;;;;;;;;;;;;;;;5015499;28;19902;-88
2022/11/03 12:50:54;;;;;;;;;;;;;;;;;;5015378;28;19985;-87
2022/11/03 12:53:19;;;;;;;;;;;;;;;;;;4999934;28;19998;-87
2022/11/03 12:55:48;;;;;;;;;;;;;;;;;;5009930;28;19984;-88
2022/11/03 12:58:13;;;;;;;;;;;;;;;;;;4982799;28;19906;-88
2022/11/03 13:00:42;;;;;;;;;;;;;;;;;;5000888;28;20013;-87
2022/11/03 13:03:13;;;;;;;;;;;;;;;;;;4986094;28;19921;-88
2022/11/03 13:05:41;;;;;;;;;;;;;;;;;;5001514;28;19912;-89
2022/11/03 13:08:07;;;;;;;;;;;;;;;;;;4985332;28;19914;-88
2022/11/03 13:10:33;;;;;;;;;;;;;;;;;;4985205;28;19909;-88
2022/11/03 13:12:58;;;;;;;;;;;;;;;;;;4979845;28;19917;-89
2022/11/03 13:15:26;;;;;;;;;;;;;;;;;;5017064;28;19902;-90
2022/11/03 13:20:46;;;;;;;;;;;;;;;;;;5142056;23;19924;-90
2022/11/03 13:23:14;;;;;;;;;;;;;;;;;;5043704;28;19919;-90
2022/11/03 13:25:40;;;;;;;;;;;;;;;;;;5036155;28;19905;-89
2022/11/03 13:28:08;;;;;;;;;;;;;;;;;;5024813;28;20005;-90
2022/11/03 13:30:40;;;;;;;;;;;;;;;;;;5017781;28;19929;-90
2022/11/03 13:36:09;;;;;;;;;;;;;;;;;;5294387;23;19925;-89
2022/11/03 13:38:34;;;;;;;;;;;;;;;;;;5032997;28;19914;-90
2022/11/03 13:41:02;;;;;;;;;;;;;;;;;;5016188;28;19948;-88
2022/11/03 13:43:28;;;;;;;;;;;;;;;;;;5032069;28;19965;-89
2022/11/03 13:45:53;;;;;;;;;;;;;;;;;;5033241;28;20203;-88
2022/11/03 13:48:27;;;;;;;;;;;;;;;;;;5032006;28;19939;-87
2022/11/03 13:50:55;;;;;;;;;;;;;;;;;;5263989;23;19926;-87
2022/11/03 13:53:37;;;;;;;;;;;;;;;;;;4965913;28;20339;-86
2022/11/03 13:56:08;;;;;;;;;;;;;;;;;;4979230;28;19914;-84
2022/11/03 13:58:43;;;;;;;;;;;;;;;;;;4979852;28;19914;-87
2022/11/03 14:01:17;;;;;;;;;;;;;;;;;;4979977;28;19914;-86
2022/11/03 14:06:46;;;;;;;;;;;;;;;;;;4995464;28;19902;-88
2022/11/03 14:09:20;;;;;;;;;;;;;;;;;;4963920;28;19914;-88
2022/11/03 14:14:36;;;;;;;;;;;;;;;;;;4975944;28;19921;-88
2022/11/03 14:20:14;;;;;;;;;;;;;;;;;;;;;
2022/11/03 14:23:08;;;;;;;;;;;;;;;;;;4987922;28;19945;-87
2022/11/03 14:28:33;;;;;;;;;;;;;;;;;;4949678;29;19915;-87
2022/11/03 14:31:31;;;;;;;;;;;;;;;;;;4944503;29;19977;-88
2022/11/03 14:34:14;;;;;;;;;;;;;;;;;;4945559;29;19914;-86
2022/11/03 14:37:08;;;;;;;;;;;;;;;;;;4961745;29;20246;-88
2022/11/03 14:46:15;;;;;;;;;;;;;;;;;;4997995;28;19930;-87
2022/11/03 14:48:43;;;;;;;;;;;;;;;;;;4980627;28;19902;-87
2022/11/03 14:51:16;;;;;;;;;;;;;;;;;;4965268;28;19918;-88
2022/11/03 14:53:42;;;;;;;;;;;;;;;;;;4960962;28;19918;-87
2022/11/03 14:56:11;;;;;;;;;;;;;;;;;;4963726;28;19913;-88
2022/11/03 15:01:37;;;;;;;;;;;;;;;;;;4991023;28;19921;-88
2022/11/03 15:04:03;;;;;;;;;;;;;;;;;;4975920;28;19995;-88
2022/11/03 15:06:29;;;;;;;;;;;;;;;;;;4961189;28;19914;-88
2022/11/03 15:08:54;;;;;;;;;;;;;;;;;;4964281;28;19914;-85
2022/11/03 15:11:20;;;;;;;;;;;;;;;;;;4980464;28;19918;-88
2022/11/03 15:13:53;;;;;;;;;;;;;;;;;;4961995;28;19914;-88
2022/11/03 15:16:21;;;;;;;;;;;;;;;;;;4962735;28;19914;-87
2022/11/03 15:18:47;;;;;;;;;;;;;;;;;;4977802;28;19942;-88
2022/11/03 15:21:13;;;;;;;;;;;;;;;;;;4963397;28;19918;-88
2022/11/03 15:23:38;;;;;;;;;;;;;;;;;;4974078;28;19923;-87
2022/11/03 15:26:07;;;;;;;;;;;;;;;;;;4974807;28;19940;-86
2022/11/03 15:28:43;;;;;;;;;;;;;;;;;;4954737;28;19914;-89
2022/11/03 15:31:08;;;;;;;;;;;;;;;;;;4951750;29;19925;-87
2022/11/03 15:33:34;;;;;;;;;;;;;;;;;;4933975;29;19954;-88
2022/11/03 15:36:00;;;;;;;;;;;;;;;;;;4949705;29;19929;-89
2022/11/03 15:38:27;;;;;;;;;;;;;;;;;;4936833;29;19914;-89
2022/11/03 15:41:14;;;;;;;;;;;;;;;;;;4948977;29;19929;-88
2022/11/03 15:43:39;;;;;;;;;;;;;;;;;;4946918;29;20350;-89
2022/11/03 15:46:04;;;;;;;;;;;;;;;;;;4948057;29;19942;-89
2022/11/03 15:48:30;;;;;;;;;;;;;;;;;;4966467;28;19921;-88
2022/11/03 15:50:55;;;;;;;;;;;;;;;;;;4870376;28;2360899;-89
2022/11/03 15:53:21;;;;;;;;;;;;;;;;;;4981261;28;19925;-89
2022/11/03 15:55:46;;;;;;;;;;;;;;;;;;4947959;28;20326;-88
2022/11/03 15:58:12;;;;;;;;;;;;;;;;;;4946933;28;19922;-90
2022/11/03 16:00:37;;;;;;;;;;;;;;;;;;4945863;28;19921;-88
2022/11/03 16:03:02;;;;;;;;;;;;;;;;;;4942107;29;19926;-88
2022/11/03 16:05:31;;;;;;;;;;;;;;;;;;4928310;29;19973;-89
2022/11/03 16:07:59;;;;;;;;;;;;;;;;;;4927711;29;19960;-89
2022/11/03 16:10:24;;;;;;;;;;;;;;;;;;4928377;29;19922;-87
2022/11/03 16:12:50;;;;;;;;;;;;;;;;;;4943367;29;20626;-89
2022/11/03 16:15:15;;;;;;;;;;;;;;;;;;4926688;29;20005;-90
2022/11/03 16:17:41;;;;;;;;;;;;;;;;;;4956671;29;19921;-88
2022/11/03 16:20:06;;;;;;;;;;;;;;;;;;4964998;28;19914;-88
2022/11/03 16:22:32;;;;;;;;;;;;;;;;;;4960132;28;19921;-89
2022/11/03 16:24:57;;;;;;;;;;;;;;;;;;4976964;28;19918;-90
2022/11/03 16:27:23;;;;;;;;;;;;;;;;;;4978777;28;19914;-90
2022/11/03 16:29:48;;;;;;;;;;;;;;;;;;4976583;28;19982;-89
2022/11/03 16:32:13;;;;;;;;;;;;;;;;;;4960275;28;20061;-90
2022/11/03 16:34:39;;;;;;;;;;;;;;;;;;4958998;28;19918;-91
2022/11/03 16:37:04;;;;;;;;;;;;;;;;;;4971746;28;19910;-89
2022/11/03 16:39:30;;;;;;;;;;;;;;;;;;4941293;29;19914;-88
2022/11/03 16:41:55;;;;;;;;;;;;;;;;;;4956124;29;19919;-90
2022/11/03 16:44:24;;;;;;;;;;;;;;;;;;4957869;29;20366;-90
2022/11/03 16:46:49;;;;;;;;;;;;;;;;;;4957947;28;19973;-90
2022/11/03 16:49:14;;;;;;;;;;;;;;;;;;4942664;29;19918;-88
2022/11/03 16:51:40;;;;;;;;;;;;;;;;;;4962973;29;19918;-90
2022/11/03 16:54:06;;;;;;;;;;;;;;;;;;4961284;28;19974;-90
2022/11/03 16:56:31;;;;;;;;;;;;;;;;;;4959493;28;19953;-90
2022/11/03 16:58:57;;;;;;;;;;;;;;;;;;4965798;29;19922;-89
2022/11/03 17:01:23;;;;;;;;;;;;;;;;;;4975815;28;19929;-90
2022/11/03 17:03:50;;;;;;;;;;;;;;;;;;4971858;28;19923;-90
2022/11/03 17:06:16;;;;;;;;;;;;;;;;;;4977475;28;19949;-88
2022/11/03 17:08:51;;;;;;;;;;;;;;;;;;4976280;28;19918;-88
2022/11/03 17:11:34;;;;;;;;;;;;;;;;;;4960450;29;19938;-90
2022/11/03 17:14:15;;;;;;;;;;;;;;;;;;4960570;29;19913;-90
2022/11/03 17:16:44;;;;;;;;;;;;;;;;;;4973222;28;19918;-90
2022/11/03 17:19:09;;;;;;;;;;;;;;;;;;4963171;29;19915;-91
2022/11/03 17:21:35;;;;;;;;;;;;;;;;;;4970282;29;19914;-89
2022/11/03 17:24:00;;;;;;;;;;;;;;;;;;4970642;29;19986;-89
2022/11/03 17:26:26;;;;;;;;;;;;;;;;;;4958930;29;19921;-90
2022/11/03 17:28:51;;;;;;;;;;;;;;;;;;4962119;29;19914;-89
2022/11/03 17:31:16;;;;;;;;;;;;;;;;;;4959663;29;19911;-89
2022/11/03 17:33:42;;;;;;;;;;;;;;;;;;4960071;29;19930;-89
2022/11/03 17:36:07;;;;;;;;;;;;;;;;;;4958004;28;19993;-90
2022/11/03 17:38:33;;;;;;;;;;;;;;;;;;4939834;29;20285;-89
2022/11/03 17:40:59;;;;;;;;;;;;;;;;;;4956040;29;19918;-90
2022/11/03 17:43:25;;;;;;;;;;;;;;;;;;4958329;28;20334;-89
2022/11/03 17:45:53;;;;;;;;;;;;;;;;;;4957617;28;19989;-92
2022/11/03 17:48:19;;;;;;;;;;;;;;;;;;4972850;28;19921;-90
2022/11/03 17:50:44;;;;;;;;;;;;;;;;;;4956137;29;20322;-90
2022/11/03 17:53:10;;;;;;;;;;;;;;;;;;4937735;29;19946;-90
2022/11/03 17:55:36;;;;;;;;;;;;;;;;;;4955330;28;19915;-88